Latest Coastal Weather Observations for Willis Island

IDQ60701

Issued at 9:12 am EST Sunday 23 February 2020 (issued every 10 minutes, with the page automatically refreshed every 10 minutes)

About coastal observations | Map of coastal stations | Coastal observations for QLD | Marine services | Other Formats
Station Details ID: 200283 Name: WILLIS ISLAND Lat: -16.29 Lon: 149.97 Height: 9.29 m
Data from the previous 72 hours. | See also: Recent months at Willis Island
Date/Time
EST
Wind Sea
Height
m
Swell Vis
km
Cloud Weather Temp
°C
Press
hPa
Rain since
9am
mm
Dir  Spd
kts
Gust
kts
Height
m
Period
s
Dir
23/09:00am NE 16 19 <0.5 0.5 8 E 30 Mostly cloudy Distant precip. 30.6 1010.6 9.4
23/08:30am NE 17 20 - - - - - - - 30.0 1010.2 9.4
23/08:00am NE 13 16 - - - - - - - 29.5 1010.1 9.4
23/07:30am NE 18 21 - - - - - - - 29.7 1009.8 9.4
23/07:00am NE 18 21 - - - - - - - 29.6 1009.5 9.4
23/06:30am NE 17 19 - - - - - - - 29.4 1009.4 9.4
23/06:00am NE 17 19 <0.5 0.5 8 SE 25 Partly cloudy Distant precip. 29.2 1008.9 9.4
23/05:30am NE 16 19 - - - - - - - 29.1 1008.7 9.4
23/05:00am NE 16 18 - - - - - - - 29.1 1008.7 9.4
23/04:30am NE 14 16 - - - - - - - 29.0 1008.8 9.4
23/04:00am NE 15 18 - - - - - - - 28.9 1008.6 9.4
23/03:30am NE 16 18 - - - - - - - 28.8 1008.6 9.4
23/03:00am NE 16 18 - - - - - - - 28.9 1008.6 9.4
23/02:30am NE 15 18 - - - - - - - 28.8 1008.9 9.4
23/02:00am NE 16 19 - - - - - - - 28.8 1008.8 9.4
23/01:30am ENE 17 19 - - - - - - - 28.7 1009.0 9.4
23/01:00am NE 15 18 - - - - - - - 28.8 1009.5 9.4
23/12:30am NE 14 15 - - - - - - - 28.8 1010.0 9.4
23/12:00am NE 16 18 - - - - - - - 28.7 1010.3 9.4
 
Date/Time
EST
Wind Sea
Height
m
Swell Vis
km
Cloud Weather Temp
°C
Press
hPa
Rain since
9am
mm
Dir  Spd
kts
Gust
kts
Height
m
Period
s
Dir
22/11:30pm NE 15 16 - - - - - - - 28.7 1010.6 9.4
22/11:00pm NNE 15 17 - - - - - - - 28.8 1010.9 9.4
22/10:30pm NE 15 17 - - - - - - - 28.8 1011.2 9.4
22/10:00pm NE 12 13 - - - - - - - 28.4 1011.1 9.4
22/09:30pm NE 13 16 - - - - - - - 28.4 1010.8 9.4
22/09:00pm N 16 19 - 9.0 - CF 25 Partly cloudy Recent precip. 28.2 1010.6 9.2
22/08:30pm N 16 17 - - - - - - - 27.5 1010.2 9.2
22/08:00pm N 19 22 - - - - - - - 27.6 1009.9 8.8
22/07:30pm N 22 27 - - - - - - - 27.4 1009.8 8.8
22/07:00pm NNE 17 21 - - - - - - - 28.2 1009.7 8.8
22/06:30pm NE 15 19 - - - - - - - 28.1 1009.2 8.8
22/06:00pm NNE 9 15 1 0.5 8 SE 15 Cloudy Showers 25.9 1009.3 8.8
22/05:30pm NNE 17 21 - - - - - - - 25.2 1009.4 8.0
22/05:07pm NE 9 21 - - - - - - - 27.3 1009.3 5.2
22/05:00pm NE 6 7 - - - - - - - 26.9 1009.2 5.2
22/04:30pm NE 9 11 - - - - - - - 26.2 1009.3 3.4
22/04:00pm ENE 26 32 - - - - - - - 26.4 1008.8 1.2
22/03:43pm ENE 21 34 - - - - - - - 27.6 1008.3 0.0
22/03:40pm ENE 17 30 - - - - - - - 28.2 1008.5 0.0
22/03:30pm ENE 19 24 - - - - - - - 28.3 1008.8 0.0
22/03:11pm ENE 17 29 - - - - - - - 30.5 1008.3 0.0
22/03:00pm ENE 17 20 1 0.5 8 SE 25 Partly cloudy Distant precip. 31.3 1008.4 0.0
22/02:30pm ENE 18 20 - - - - - - - 31.2 1008.5 0.0
22/02:00pm ENE 19 23 - - - - - - - 30.4 1008.7 0.0
22/01:30pm ENE 17 20 - - - - - - - 31.5 1009.1 0.0
22/01:00pm ENE 17 19 - - - - - - - 31.9 1009.7 0.0
22/12:30pm ENE 17 19 - - - - - - - 32.6 1010.2 0.0
22/12:00pm ENE 16 18 1 0.8 8 SE 30 Mostly cloudy Distant precip. 31.9 1010.7 0.0
22/11:30am ENE 15 18 - - - - - - - 32.1 1011.1 0.0
22/11:00am ENE 16 18 - - - - - - - 31.9 1011.0 0.0
22/10:30am ENE 16 18 - - - - - - - 32.1 1011.2 0.0
22/10:00am ENE 15 17 - - - - - - - 31.7 1011.0 0.0
22/09:30am ENE 16 19 - - - - - - - 31.2 1011.1 0.0
22/09:00am ENE 16 19 1 0.8 8 SE 30 Partly cloudy Fine 31.2 1010.9 0.0
22/08:30am ENE 17 20 - - - - - - - 30.8 1010.6 0.0
22/08:00am ENE 17 20 - - - - - - - 30.7 1010.2 0.0
22/07:30am ENE 17 19 - - - - - - - 30.3 1009.9 0.0
22/07:00am ENE 16 18 - - - - - - - 30.1 1009.5 0.0
22/06:30am ENE 15 17 - - - - - - - 29.4 1009.3 0.0
22/06:00am ENE 15 17 <0.5 0.8 8 SE 30 Mostly cloudy Fine 29.4 1009.2 0.0
22/05:30am ENE 15 18 - - - - - - - 28.9 1008.9 0.0
22/05:00am ENE 14 16 - - - - - - - 29.2 1008.8 0.0
22/04:30am ENE 13 16 - - - - - - - 29.2 1008.8 0.0
22/04:00am ENE 13 15 - - - - - - - 29.2 1008.6 0.0
22/03:30am ENE 12 15 - - - - - - - 28.9 1008.7 0.0
22/03:00am ENE 13 15 - - - - - - - 29.1 1008.7 0.0
22/02:30am ENE 11 13 - - - - - - - 29.0 1008.8 0.0
22/02:00am ENE 11 13 - - - - - - - 29.0 1009.1 0.0
22/01:30am ENE 11 13 - - - - - - - 29.2 1009.4 0.0
22/01:00am ENE 11 13 - - - - - - - 29.2 1009.9 0.0
22/12:30am ENE 12 14 - - - - - - - 29.1 1010.1 0.0
22/12:00am ENE 11 13 - - - - - - - 29.4 1010.5 0.0
 
Date/Time
EST
Wind Sea
Height
m
Swell Vis
km
Cloud Weather Temp
°C
Press
hPa
Rain since
9am
mm
Dir  Spd
kts
Gust
kts
Height
m
Period
s
Dir
21/11:30pm ENE 10 12 - - - - - - - 29.5 1010.9 0.0
21/11:00pm ENE 10 12 - - - - - - - 29.5 1011.1 0.0
21/10:30pm ENE 9 10 - - - - - - - 29.5 1011.2 0.0
21/10:00pm ENE 10 12 - - - - - - - 29.6 1010.8 0.0
21/09:30pm ENE 10 11 - - - - - - - 29.6 1010.5 0.0
21/09:00pm ENE 9 11 - 9.0 - CF 30 Mostly clear Fine 29.4 1010.3 0.0
21/08:30pm ENE 9 11 - - - - - - - 29.4 1010.1 0.0
21/08:00pm ENE 8 9 - - - - - - - 29.2 1009.6 0.0
21/07:30pm ENE 10 11 - - - - - - - 29.1 1009.3 0.0
21/07:00pm E 10 12 - - - - - - - 29.1 1008.8 0.0
21/06:30pm E 10 11 - - - - - - - 29.1 1008.5 0.0
21/06:00pm E 11 13 1 0.5 8 SE 30 Partly cloudy Distant precip. 29.6 1008.3 0.0
21/05:30pm E 9 11 - - - - - - - 30.3 1008.0 0.0
21/05:00pm E 9 11 - - - - - - - 30.9 1007.8 0.0
21/04:30pm E 8 9 - - - - - - - 31.2 1007.7 0.0
21/04:00pm E 9 11 - - - - - - - 31.5 1007.5 0.0
21/03:30pm E 8 10 - - - - - - - 31.5 1007.5 0.0
21/03:00pm E 9 11 <0.5 0.5 8 SE 30 Mostly cloudy Distant precip. 32.0 1007.6 0.0
21/02:30pm E 9 10 - - - - - - - 32.4 1007.9 0.0
21/02:00pm E 9 11 - - - - - - - 32.4 1008.0 0.0
21/01:30pm E 10 12 - - - - - - - 32.0 1008.3 0.0
21/01:00pm E 11 13 - - - - - - - 32.6 1008.7 0.0
21/12:30pm E 11 14 - - - - - - - 32.5 1008.9 0.0
21/12:00pm E 12 13 <0.5 0.8 8 SE 30 Mostly cloudy Distant precip. 32.0 1009.1 0.0
21/11:30am E 13 14 - - - - - - - 32.1 1009.3 0.0
21/11:00am E 12 14 - - - - - - - 32.2 1009.5 0.0
21/10:30am E 12 15 - - - - - - - 31.6 1009.8 0.0
21/10:00am E 12 15 - - - - - - - 31.5 1009.9 0.0
21/09:30am E 13 16 - - - - - - - 31.2 1009.7 0.0
21/09:00am E 13 15 <0.5 0.8 8 SE 30 Mostly cloudy Fine 31.2 1009.6 0.0
21/08:30am E 12 14 - - - - - - - 30.9 1009.5 0.0
21/08:00am E 11 13 - - - - - - - 30.4 1009.2 0.0
21/07:30am E 11 13 - - - - - - - 30.3 1009.0 0.0
21/07:00am E 11 12 - - - - - - - 29.5 1008.8 0.0
21/06:30am E 9 11 - - - - - - - 29.3 1008.6 0.0
21/06:00am E 9 10 <0.5 0.8 8 SE 30 Mostly cloudy Fine 28.9 1008.4 0.0
21/05:30am ESE 9 10 - - - - - - - 28.9 1008.0 0.0
21/05:00am ESE 9 10 - - - - - - - 28.9 1007.8 0.0
21/04:30am ESE 8 10 - - - - - - - 28.8 1007.7 0.0
21/04:00am ESE 8 9 - - - - - - - 28.7 1007.4 0.0
21/03:30am ESE 9 10 - - - - - - - 28.7 1007.1 0.0
21/03:00am ESE 9 10 - - - - - - - 28.5 1007.2 0.0
21/02:30am ESE 7 9 - - - - - - - 28.6 1007.4 0.0
21/02:00am ESE 7 9 - - - - - - - 28.6 1007.8 0.0
21/01:30am ESE 9 11 - - - - - - - 28.7 1008.2 0.0
21/01:00am ESE 10 12 - - - - - - - 28.8 1008.5 0.0
21/12:30am ESE 9 11 - - - - - - - 28.9 1008.8 0.0
21/12:00am ESE 9 11 - - - - - - - 28.9 1008.8 0.0
 
Date/Time
EST
Wind Sea
Height
m
Swell Vis
km
Cloud Weather Temp
°C
Press
hPa
Rain since
9am
mm
Dir  Spd
kts
Gust
kts
Height
m
Period
s
Dir
20/11:30pm ESE 8 10 - - - - - - - 29.2 1009.2 0.0
20/11:00pm ESE 9 11 - - - - - - - 29.0 1009.2 0.0
20/10:30pm ESE 9 10 - - - - - - - 29.3 1009.3 0.0
20/10:00pm ESE 9 11 - - - - - - - 29.3 1009.3 0.0
20/09:30pm ESE 9 11 - - - - - - - 29.4 1008.7 0.0
20/09:00pm ESE 11 12 - 9.0 - CF 30 Mostly clear Fine 29.5 1008.4 0.0
20/08:30pm ESE 10 12 - - - - - - - 29.7 1008.1 0.0
20/08:00pm ESE 10 12 - - - - - - - 29.5 1007.8 0.0
20/07:30pm ESE 8 11 - - - - - - - 29.6 1007.3 0.0
20/07:00pm ESE 7 8 - - - - - - - 29.4 1007.1 0.0
20/06:30pm ESE 7 9 - - - - - - - 29.4 1007.0 0.0
20/06:00pm SE 7 8 <0.5 0.5 8 SE 30 Partly cloudy Distant precip. 30.0 1006.6 0.0
20/05:30pm SE 7 8 - - - - - - - 30.5 1006.3 0.0
20/05:00pm SE 6 7 - - - - - - - 30.7 1006.0 0.0
20/04:30pm SE 6 7 - - - - - - - 31.5 1005.8 0.0
20/04:00pm SE 4 5 - - - - - - - 30.7 1005.7 0.0
20/03:30pm SE 6 7 - - - - - - - 30.7 1005.7 0.0
20/03:00pm SE 7 8 <0.5 0.5 8 SE 30 Mostly cloudy Fine 30.5 1005.9 0.0
20/02:30pm SE 8 9 - - - - - - - 31.0 1006.0 0.0
20/02:00pm SE 11 12 - - - - - - - 31.2 1006.1 0.0
20/01:30pm ESE 12 13 - - - - - - - 31.7 1006.3 0.0
20/01:00pm SE 6 7 - - - - - - - 31.9 1006.6 0.0
20/12:30pm SE 6 7 - - - - - - - 31.9 1006.9 0.0
20/12:00pm SE 5 7 <0.5 0.2 9 SE 30 Partly cloudy Distant precip. 31.9 1007.4 0.0
20/11:30am SE 5 6 - - - - - - - 32.0 1007.7 0.0
20/11:00am SE 5 6 - - - - - - - 31.8 1007.9 0.0
20/10:30am ESE 5 7 - - - - - - - 31.7 1008.0 0.0
20/10:00am ESE 6 8 - - - - - - - 31.9 1007.9 0.0
20/09:30am ESE 6 8 - - - - - - - 31.6 1008.1 0.0

Other formats

Comma delimited format used in spreadsheet applications
http://www.bom.gov.au/fwo/IDQ60701/IDQ60701.94299.axf

JavaScript Object Notation format (JSON) in row-major order
http://www.bom.gov.au/fwo/IDQ60701/IDQ60701.94299.json

Data quality

Most of these data are generated automatically and are frequently updated. Quality checks on data are not normally performed. It is possible for incorrect values to appear. Refer to information at About Latest Weather Observations and please check the disclaimer before using these data.